Time;durP1;ratioP1;P1;durP2;ratioP2;P2;SDS_P1;SDS_P2;PMS_P1;PMS_P2;Temp;Humidity;BMP_temperature;BMP_pressure;BME280_temperature;BME280_humidity;BME280_pressure;Samples;Min_cycle;Max_cycle;Signal;HPM_P1;HPM_P2
2021/10/21 00:01:11;;;;;;;0.82;0.50;;;;;;;;;;4896032;29;20033;-92
2021/10/21 00:03:37;;;;;;;0.30;0.30;;;;;;;;;;4881620;29;20550;-94
2021/10/21 00:06:04;;;;;;;0.80;0.50;;;;;;;;;;4882350;29;20029;-95
2021/10/21 00:08:30;;;;;;;0.88;0.30;;;;;;;;;;4882179;29;20041;-95
2021/10/21 00:10:57;;;;;;;5.53;1.40;;;;;;;;;;4896971;29;20029;-92
2021/10/21 00:13:23;;;;;;;0.60;0.45;;;18.20;72.10;;;;;;4878903;29;20495;-92
2021/10/21 00:15:49;;;;;;;1.80;0.53;;;;;;;;;;4879060;29;20058;-93
2021/10/21 00:18:15;;;;;;;2.40;0.90;;;;;;;;;;4894557;29;20406;-93
2021/10/21 00:20:42;;;;;;;1.63;0.95;;;;;;;;;;4893634;29;20036;-94
2021/10/21 00:23:08;;;;;;;0.82;0.50;;;;;;;;;;4877621;29;20044;-94
2021/10/21 00:25:34;;;;;;;0.82;0.63;;;;;;;;;;4881147;29;20483;-94
2021/10/21 00:28:00;;;;;;;1.00;0.60;;;;;;;;;;4880889;29;20471;-94
2021/10/21 00:30:26;;;;;;;2.55;0.80;;;;;;;;;;4881367;29;20040;-95
2021/10/21 00:32:52;;;;;;;0.85;0.70;;;;;;;;;;4862656;29;20498;-94
2021/10/21 00:35:18;;;;;;;1.33;0.68;;;;;;;;;;4891603;29;20402;-93
2021/10/21 00:37:44;;;;;;;0.45;0.40;;;;;;;;;;4880698;29;20036;-95
2021/10/21 00:40:11;;;;;;;1.10;0.50;;;;;;;;;;4879298;29;20025;-93
2021/10/21 00:42:38;;;;;;;0.43;0.40;;;;;;;;;;4895320;29;20033;-93
2021/10/21 00:45:05;;;;;;;1.75;0.85;;;;;;;;;;4894989;29;20033;-92
2021/10/21 00:47:31;;;;;;;1.17;0.70;;;;;;;;;;4894813;29;20106;-93
2021/10/21 00:49:57;;;;;;;0.30;0.30;;;;;;;;;;4892415;29;20262;-93
2021/10/21 00:52:24;;;;;;;0.60;0.50;;;17.00;85.10;;;;;;4880350;29;20798;-93
2021/10/21 00:54:51;;;;;;;3.85;0.63;;;;;;;;;;4880646;29;20424;-92
2021/10/21 00:57:17;;;;;;;0.60;0.47;;;;;;;;;;4879425;29;20033;-93
2021/10/21 00:59:47;;;;;;;0.57;0.40;;;;;;;;;;4879212;29;20029;-93
2021/10/21 01:02:13;;;;;;;0.90;0.40;;;;;;;;;;4878773;29;20029;-93
2021/10/21 01:04:40;;;;;;;0.85;0.80;;;16.90;85.50;;;;;;4879610;29;20165;-94
2021/10/21 01:07:06;;;;;;;0.45;0.43;;;;;;;;;;4890541;29;20544;-93
2021/10/21 01:09:33;;;;;;;3.22;0.40;;;;;;;;;;4894818;29;20037;-92
2021/10/21 01:11:59;;;;;;;1.88;0.65;;;;;;;;;;4879074;29;20025;-95
2021/10/21 01:14:25;;;;;;;0.50;0.50;;;;;;;;;;4880436;29;20093;-93
2021/10/21 01:16:51;;;;;;;0.60;0.60;;;;;;;;;;4880199;29;20037;-93
2021/10/21 01:19:21;;;;;;;2.15;0.60;;;;;;;;;;4878466;29;20392;-93
2021/10/21 01:21:50;;;;;;;0.40;0.40;;;17.00;80.80;;;;;;4880421;29;20041;-93
2021/10/21 01:24:17;;;;;;;0.90;0.50;;;17.00;80.40;;;;;;4880036;29;20036;-94
2021/10/21 01:26:43;;;;;;;1.17;1.07;;;17.00;79.70;;;;;;4879926;29;20489;-94
2021/10/21 01:29:09;;;;;;;0.83;0.83;;;;;;;;;;4894231;29;20306;-94
2021/10/21 01:31:38;;;;;;;0.75;0.57;;;17.10;79.30;;;;;;4879767;29;20288;-91
2021/10/21 01:34:07;;;;;;;1.63;0.70;;;17.10;78.70;;;;;;4894075;29;20123;-93
2021/10/21 01:36:33;;;;;;;0.60;0.60;;;;;;;;;;4878767;29;20025;-93
2021/10/21 01:38:59;;;;;;;5.88;1.10;;;;;;;;;;4893993;29;20119;-92
2021/10/21 01:41:25;;;;;;;4.45;0.80;;;;;;;;;;4864942;29;20041;-94
2021/10/21 01:43:51;;;;;;;2.33;0.57;;;;;;;;;;4885784;29;21023;-93
2021/10/21 01:46:17;;;;;;;1.13;0.60;;;;;;;;;;4879637;29;20037;-93
2021/10/21 01:48:43;;;;;;;1.08;0.68;;;;;;;;;;4879760;29;20038;-94
2021/10/21 01:51:09;;;;;;;0.63;0.40;;;;;;;;;;4860895;29;20095;-94
2021/10/21 01:53:35;;;;;;;0.82;0.80;;;;;;;;;;4895161;29;20037;-93
2021/10/21 01:56:01;;;;;;;0.80;0.70;;;;;;;;;;4894071;29;20029;-93
2021/10/21 01:58:27;;;;;;;3.88;0.60;;;;;;;;;;4877470;29;20091;-94
2021/10/21 02:00:53;;;;;;;1.98;0.60;;;;;;;;;;4879311;29;20057;-95
2021/10/21 02:03:19;;;;;;;1.23;0.60;;;;;;;;;;4879706;29;20053;-93
2021/10/21 02:05:45;;;;;;;4.65;0.60;;;;;;;;;;4879521;29;20418;-92
2021/10/21 02:08:11;;;;;;;1.73;0.68;;;;;;;;;;4894111;29;20506;-93
2021/10/21 02:10:37;;;;;;;0.60;0.60;;;;;;;;;;4879557;29;20044;-95
2021/10/21 02:13:03;;;;;;;0.68;0.50;;;;;;;;;;4878298;29;20149;-93
2021/10/21 02:15:29;;;;;;;0.45;0.43;;;;;;;;;;4893415;29;20029;-96
2021/10/21 02:17:55;;;;;;;2.15;1.13;;;;;;;;;;4880214;29;20030;-93
2021/10/21 02:20:22;;;;;;;3.30;1.27;;;;;;;;;;4886843;29;20070;-93
2021/10/21 02:22:50;;;;;;;1.88;0.70;;;;;;;;;;4894883;29;20040;-95
2021/10/21 02:25:16;;;;;;;2.05;0.45;;;;;;;;;;4881769;29;20045;-93
2021/10/21 02:27:42;;;;;;;4.47;0.55;;;;;;;;;;4882510;29;20041;-93
2021/10/21 02:30:10;;;;;;;2.28;0.75;;;17.20;67.50;;;;;;4883542;29;20069;-94
2021/10/21 02:32:39;;;;;;;3.83;0.82;;;;;;;;;;4866840;29;20054;-95
2021/10/21 02:35:06;;;;;;;1.75;1.05;;;;;;;;;;4883657;29;20490;-95
2021/10/21 02:37:32;;;;;;;1.65;0.60;;;;;;;;;;4883245;29;20062;-95
2021/10/21 02:39:59;;;;;;;4.22;1.30;;;;;;;;;;4883634;29;20051;-94
2021/10/21 02:42:25;;;;;;;1.98;0.68;;;;;;;;;;4880497;29;20044;-94
2021/10/21 02:44:52;;;;;;;5.20;0.93;;;;;;;;;;4884409;29;20600;-95
2021/10/21 02:47:18;;;;;;;0.77;0.47;;;;;;;;;;4884177;29;20048;-95
2021/10/21 02:49:46;;;;;;;1.42;0.57;;;;;;;;;;4884909;29;20628;-94
2021/10/21 02:52:12;;;;;;;;;;;17.10;57.90;;;;;;4882591;29;20041;-94
2021/10/21 02:54:38;;;;;;;2.25;0.68;;;;;;;;;;4884263;29;20358;-94
2021/10/21 02:57:04;;;;;;;3.08;0.88;;;;;;;;;;4883410;29;20029;-95
2021/10/21 02:59:30;;;;;;;0.85;0.30;;;;;;;;;;4883781;29;20411;-95
2021/10/21 03:01:56;;;;;;;0.55;0.40;;;;;;;;;;4880574;29;20044;-95
2021/10/21 03:04:22;;;;;;;5.05;0.80;;;;;;;;;;4884428;29;20045;-94
2021/10/21 03:06:48;;;;;;;2.75;0.82;;;;;;;;;;4897691;29;20033;-95
2021/10/21 03:09:14;;;;;;;1.65;0.75;;;;;;;;;;4883115;29;20069;-94
2021/10/21 03:11:40;;;;;;;5.78;0.88;;;;;;;;;;4869065;29;20061;-95
2021/10/21 03:14:06;;;;;;;6.80;1.25;;;;;;;;;;4892631;29;20029;-95
2021/10/21 03:16:35;;;;;;;5.35;0.73;;;;;;;;;;4875626;29;20029;-95
2021/10/21 03:19:02;;;;;;;2.35;0.73;;;17.00;52.40;;;;;;4869850;29;20029;-93
2021/10/21 03:21:30;;;;;;;1.90;0.80;;;;;;;;;;4901671;29;20025;-94
2021/10/21 03:23:57;;;;;;;2.25;1.15;;;;;;;;;;4886509;29;20034;-94
2021/10/21 03:26:24;;;;;;;1.38;0.40;;;;;;;;;;4883594;29;20101;-95
2021/10/21 03:28:51;;;;;;;2.53;0.80;;;;;;;;;;4890295;29;20045;-94
2021/10/21 03:31:18;;;;;;;7.57;0.82;;;;;;;;;;4893184;29;20028;-95
2021/10/21 03:33:59;;;;;;;3.20;0.50;;;16.60;57.10;;;;;;4893808;29;20025;-94
2021/10/21 03:36:25;;;;;;;1.30;0.63;;;;;;;;;;4905558;29;20041;-95
2021/10/21 03:38:52;;;;;;;3.08;0.57;;;;;;;;;;4906004;29;20037;-95
2021/10/21 03:41:21;;;;;;;0.35;0.35;;;16.40;56.50;;;;;;4891754;29;20040;-95
2021/10/21 03:43:49;;;;;;;3.10;0.85;;;;;;;;;;4908680;29;20033;-94
2021/10/21 03:46:15;;;;;;;1.05;0.95;;;;;;;;;;4892621;29;20035;-95
2021/10/21 03:48:45;;;;;;;2.90;0.50;;;;;;;;;;4907326;29;20195;-94
2021/10/21 03:51:14;;;;;;;1.13;0.73;;;;;;;;;;4889985;29;20025;-94
2021/10/21 03:53:43;;;;;;;5.00;1.15;;;;;;;;;;4893634;29;20025;-95
2021/10/21 03:56:11;;;;;;;4.13;0.80;;;;;;;;;;4890347;29;20041;-95
2021/10/21 03:58:41;;;;;;;5.20;0.70;;;;;;;;;;4897944;29;20048;-94
2021/10/21 04:01:08;;;;;;;2.75;1.17;;;;;;;;;;4873219;29;20093;-95
2021/10/21 04:03:36;;;;;;;4.72;1.17;;;;;;;;;;4875745;29;20060;-93
2021/10/21 04:06:06;;;;;;;1.65;0.98;;;;;;;;;;4891941;29;20102;-95
2021/10/21 04:08:36;;;;;;;2.00;0.50;;;;;;;;;;4891276;29;20537;-95
2021/10/21 04:11:04;;;;;;;2.38;0.80;;;;;;;;;;4894995;29;20039;-95
2021/10/21 04:13:32;;;;;;;2.97;1.55;;;;;;;;;;4908304;29;20025;-94
2021/10/21 04:16:01;;;;;;;0.77;0.52;;;;;;;;;;4893444;29;20105;-95
2021/10/21 04:18:29;;;;;;;2.47;0.60;;;;;;;;;;4892596;29;20117;-94
2021/10/21 04:20:57;;;;;;;6.25;0.52;;;;;;;;;;4873084;29;20036;-95
2021/10/21 04:23:24;;;;;;;2.92;1.45;;;;;;;;;;4899847;29;20131;-95
2021/10/21 04:25:53;;;;;;;5.18;0.77;;;;;;;;;;4889706;29;20025;-95
2021/10/21 04:28:19;;;;;;;0.85;0.50;;;;;;;;;;4887492;29;20161;-95
2021/10/21 04:30:45;;;;;;;1.10;0.95;;;;;;;;;;4890020;29;20029;-94
2021/10/21 04:33:13;;;;;;;1.73;0.68;;;;;;;;;;4892116;29;20573;-94
2021/10/21 04:35:40;;;;;;;;;;;;;;;;;;4908434;29;20041;-95
2021/10/21 04:38:17;;;;;;;1.55;0.90;;;;;;;;;;4892047;29;19908;-95
2021/10/21 04:40:45;;;;;;;3.95;0.55;;;;;;;;;;4892954;29;20025;-95
2021/10/21 04:43:15;;;;;;;1.15;0.52;;;;;;;;;;4909040;29;20037;-94
2021/10/21 04:45:50;;;;;;;3.45;1.02;;;;;;;;;;4894839;29;20112;-96
2021/10/21 04:48:29;;;;;;;2.95;2.42;;;;;;;;;;4880791;29;20045;-96
2021/10/21 04:51:15;;;;;;;4.05;1.00;;;;;;;;;;4875967;29;20050;-93
2021/10/21 04:56:54;;;;;;;10.05;1.42;;;;;;;;;;4881363;29;20036;-95
2021/10/21 04:59:39;;;;;;;5.82;1.13;;;;;;;;;;4892475;29;20045;-94
2021/10/21 05:02:13;;;;;;;1.20;0.68;;;;;;;;;;4896491;29;20033;-95
2021/10/21 05:05:16;;;;;;;3.90;1.10;;;;;;;;;;4895592;29;20059;-95
2021/10/21 05:08:42;;;;;;;1.38;0.85;;;;;;;;;;4897096;29;20052;-95
2021/10/21 05:11:32;;;;;;;5.38;0.70;;;;;;;;;;4858835;29;20034;-94
2021/10/21 05:14:11;;;;;;;3.28;0.93;;;;;;;;;;4858878;29;20055;-94
2021/10/21 05:17:22;;;;;;;4.13;1.08;;;;;;;;;;4860264;29;20028;-96
2021/10/21 05:23:50;;;;;;;1.70;1.13;;;;;;;;;;4849415;29;20059;-95
2021/10/21 05:30:20;;;;;;;10.23;1.50;;;;;;;;;;4847559;29;20026;-95
2021/10/21 05:33:15;;;;;;;6.45;1.35;;;;;;;;;;4809511;30;20039;-95
2021/10/21 05:39:15;;;;;;;13.10;1.10;;;;;;;;;;4810335;29;20049;-94
2021/10/21 05:41:42;;;;;;;8.02;2.28;;;;;;;;;;4747826;30;20044;-95
2021/10/21 05:44:08;;;;;;;11.57;1.33;;;;;;;;;;4736967;30;20105;-94
2021/10/21 05:46:34;;;;;;;4.18;1.48;;;;;;;;;;4719008;30;20033;-94
2021/10/21 05:49:00;;;;;;;3.45;1.90;;;;;;;;;;4742617;30;20048;-90
2021/10/21 05:51:26;;;;;;;14.52;2.25;;;;;;;;;;4734673;30;20115;-90
2021/10/21 05:53:55;;;;;;;3.45;0.90;;;;;;;;;;4731433;30;20077;-91
2021/10/21 05:56:21;;;;;;;3.58;1.33;;;;;;;;;;4731577;30;20538;-89
2021/10/21 05:58:47;;;;;;;3.25;1.25;;;;;;;;;;4731977;30;20049;-91
2021/10/21 06:01:13;;;;;;;8.75;1.15;;;;;;;;;;4731548;30;20040;-91
2021/10/21 06:03:39;;;;;;;3.22;1.33;;;;;;;;;;4732637;30;20052;-90
2021/10/21 06:06:06;;;;;;;5.32;1.15;;;;;;;;;;4749603;30;20048;-91
2021/10/21 06:08:32;;;;;;;6.95;1.30;;;;;;;;;;4749228;30;20846;-92
2021/10/21 06:11:01;;;;;;;2.55;1.85;;;15.00;60.10;;;;;;4767609;30;20108;-92
2021/10/21 06:13:27;;;;;;;6.95;1.08;;;;;;;;;;4784879;30;20134;-91
2021/10/21 06:15:53;;;;;;;10.20;1.42;;;;;;;;;;4784257;29;20027;-95
2021/10/21 06:18:19;;;;;;;7.00;1.52;;;;;;;;;;4804690;29;20098;-94
2021/10/21 06:20:45;;;;;;;10.07;1.50;;;;;;;;;;4824382;29;20026;-95
2021/10/21 06:23:12;;;;;;;0.93;0.70;;;;;;;;;;4841938;29;20057;-94
2021/10/21 06:25:38;;;;;;;1.63;0.73;;;;;;;;;;4869564;29;20093;-92
2021/10/21 06:28:04;;;;;;;1.63;0.70;;;;;;;;;;4878352;29;20045;-94
2021/10/21 06:30:30;;;;;;;3.03;0.98;;;;;;;;;;4878348;29;20456;-95
2021/10/21 06:32:56;;;;;;;2.85;0.95;;;;;;;;;;4870521;29;20041;-92
2021/10/21 06:35:22;;;;;;;4.95;2.03;;;;;;;;;;4890007;29;20025;-92
2021/10/21 06:37:49;;;;;;;3.88;1.00;;;;;;;;;;4877756;29;20093;-92
2021/10/21 06:40:16;;;;;;;2.45;0.90;;;;;;;;;;4877788;29;20047;-91
2021/10/21 06:42:42;;;;;;;5.35;0.93;;;;;;;;;;4877814;29;20048;-91
2021/10/21 06:45:11;;;;;;;2.30;0.70;;;;;;;;;;4873567;29;20570;-91
2021/10/21 06:47:41;;;;;;;1.95;1.05;;;;;;;;;;4873812;29;20093;-91
2021/10/21 06:50:09;;;;;;;2.20;1.05;;;;;;;;;;4875620;29;20037;-93
2021/10/21 06:52:35;;;;;;;1.08;0.98;;;;;;;;;;4877575;29;20029;-94
2021/10/21 06:55:01;;;;;;;6.82;2.78;;;;;;;;;;4871172;29;20039;-92
2021/10/21 06:57:27;;;;;;;3.42;1.10;;;;;;;;;;4878890;29;20025;-93
2021/10/21 06:59:53;;;;;;;3.97;1.98;;;;;;;;;;4879837;29;20076;-91
2021/10/21 07:02:19;;;;;;;6.38;1.35;;;;;;;;;;4880926;29;20060;-91
2021/10/21 07:04:45;;;;;;;4.43;1.05;;;;;;;;;;4875036;29;20057;-93
2021/10/21 07:07:11;;;;;;;2.28;1.25;;;;;;;;;;5038576;23;20059;-95
2021/10/21 07:12:36;;;;;;;2.65;0.88;;;15.00;64.00;;;;;;5036097;23;20071;-89
2021/10/21 07:15:12;;;;;;;6.50;1.20;;;;;;;;;;4898887;29;20176;-94
2021/10/21 07:17:40;;;;;;;7.55;3.85;;;;;;;;;;4899921;29;20036;-92
2021/10/21 07:20:06;;;;;;;16.02;2.33;;;;;;;;;;4902114;29;20031;-92
2021/10/21 07:22:32;;;;;;;5.65;1.63;;;;;;;;;;4872160;29;20016;-92
2021/10/21 07:24:58;;;;;;;4.25;1.88;;;;;;;;;;4897072;29;20546;-91
2021/10/21 07:27:25;;;;;;;1.83;1.55;;;;;;;;;;4899536;29;20033;-92
2021/10/21 07:30:07;;;;;;;3.83;1.30;;;;;;;;;;4900549;29;20116;-95
2021/10/21 07:32:34;;;;;;;4.22;0.90;;;;;;;;;;4902849;29;20052;-94
2021/10/21 07:35:01;;;;;;;3.33;1.83;;;;;;;;;;4896475;29;20088;-94
2021/10/21 07:37:27;;;;;;;5.15;1.70;;;;;;;;;;4891814;29;20060;-94
2021/10/21 07:39:56;;;;;;;4.07;1.92;;;;;;;;;;4901105;29;20083;-94
2021/10/21 07:42:34;;;;;;;6.47;1.55;;;;;;;;;;4898777;29;20035;-93
2021/10/21 07:45:04;;;;;;;3.97;1.75;;;;;;;;;;4899650;29;20037;-95
2021/10/21 07:47:30;;;;;;;2.45;1.08;;;;;;;;;;4898583;29;20074;-95
2021/10/21 07:49:56;;;;;;;5.10;1.73;;;;;;;;;;4911203;29;20033;-94
2021/10/21 07:52:22;;;;;;;6.60;1.75;;;;;;;;;;4898549;29;20033;-92
2021/10/21 07:54:48;;;;;;;2.33;1.20;;;;;;;;;;4881168;29;20032;-93
2021/10/21 07:57:14;;;;;;;4.38;0.93;;;;;;;;;;4896514;29;20028;-92
2021/10/21 07:59:41;;;;;;;5.75;1.48;;;;;;;;;;4899897;29;20052;-94
2021/10/21 08:02:07;;;;;;;8.43;1.85;;;;;;;;;;4894853;29;20087;-94
2021/10/21 08:04:33;;;;;;;2.75;1.50;;;;;;;;;;4899943;29;20036;-95
2021/10/21 08:06:59;;;;;;;5.90;1.80;;;;;;;;;;4886384;29;20035;-93
2021/10/21 08:09:26;;;;;;;6.57;1.58;;;;;;;;;;4882697;29;20314;-91
2021/10/21 08:11:53;;;;;;;5.20;1.60;;;;;;;;;;4897729;29;20053;-93
2021/10/21 08:14:19;;;;;;;3.88;0.82;;;;;;;;;;4899167;29;20029;-92
2021/10/21 08:16:45;;;;;;;11.23;2.93;;;;;;;;;;4898730;29;20024;-91
2021/10/21 08:19:13;;;;;;;8.77;2.45;;;;;;;;;;4894324;29;20032;-93
2021/10/21 08:21:39;;;;;;;6.93;2.38;;;;;;;;;;4886626;29;20032;-93
2021/10/21 08:24:05;;;;;;;9.47;2.73;;;;;;;;;;4898191;29;20037;-89
2021/10/21 08:26:31;;;;;;;5.28;2.42;;;;;;;;;;4893791;29;20033;-89
2021/10/21 08:28:58;;;;;;;2.67;1.17;;;;;;;;;;4896425;29;20037;-88
2021/10/21 08:31:24;;;;;;;6.13;2.03;;;;;;;;;;4890733;29;20033;-89
2021/10/21 08:33:50;;;;;;;9.20;2.28;;;;;;;;;;4878618;29;20037;-88
2021/10/21 08:36:18;;;;;;;7.72;2.17;;;18.20;57.20;;;;;;4894712;29;20107;-89
2021/10/21 08:38:44;;;;;;;3.72;1.30;;;;;;;;;;4897304;29;20032;-89
2021/10/21 08:41:15;;;;;;;2.72;0.88;;;19.10;52.70;;;;;;4885413;29;20088;-88
2021/10/21 08:43:41;;;;;;;9.07;2.90;;;;;;;;;;4886927;29;20064;-92
2021/10/21 08:46:08;;;;;;;7.57;1.23;;;;;;;;;;4895024;29;20033;-96
2021/10/21 08:48:35;;;;;;;5.07;1.30;;;;;;;;;;4899081;29;20426;-95
2021/10/21 08:51:01;;;;;;;6.97;1.38;;;;;;;;;;4897143;29;20486;-93
2021/10/21 08:53:27;;;;;;;15.57;2.28;;;;;;;;;;4898858;29;20029;-92
2021/10/21 08:55:56;;;;;;;16.70;1.73;;;;;;;;;;4884265;29;20040;-92
2021/10/21 08:58:25;;;;;;;2.22;1.10;;;;;;;;;;4896678;29;20028;-94
2021/10/21 09:01:04;;;;;;;10.07;1.52;;;;;;;;;;4898481;29;20144;-93
2021/10/21 09:03:44;;;;;;;10.55;1.30;;;;;;;;;;4899158;29;20047;-94
2021/10/21 09:09:03;;;;;;;5.60;1.45;;;;;;;;;;4877795;29;20052;-94
2021/10/21 09:11:29;;;;;;;8.20;1.17;;;;;;;;;;4877617;29;20060;-95
2021/10/21 09:14:12;;;;;;;4.57;1.63;;;;;;;;;;4884641;29;20068;-96
2021/10/21 09:16:45;;;;;;;5.72;0.93;;;;;;;;;;4891217;29;20048;-96
2021/10/21 09:19:16;;;;;;;2.88;1.20;;;;;;;;;;4880530;29;20048;-96
2021/10/21 09:21:42;;;;;;;4.10;1.20;;;;;;;;;;4881606;29;20025;-96
2021/10/21 09:24:28;;;;;;;14.85;1.80;;;;;;;;;;4882469;29;20025;-96
2021/10/21 09:27:01;;;;;;;7.35;1.52;;;;;;;;;;4880270;29;20045;-95
2021/10/21 09:29:28;;;;;;;8.55;1.13;;;;;;;;;;4874912;29;20053;-95
2021/10/21 09:32:14;;;;;;;5.45;1.42;;;;;;;;;;4874807;29;20033;-93
2021/10/21 09:34:51;;;;;;;10.88;1.35;;;;;;;;;;4873482;29;20584;-94
2021/10/21 09:37:27;;;;;;;8.43;1.92;;;;;;;;;;4887758;29;20037;-96
2021/10/21 09:39:58;;;;;;;10.65;2.17;;;;;;;;;;4867855;29;20082;-95
2021/10/21 09:42:30;;;;;;;5.93;1.02;;;;;;;;;;4899212;29;20455;-94
2021/10/21 09:45:13;;;;;;;8.68;1.23;;;;;;;;;;4891121;29;20060;-92
2021/10/21 09:47:42;;;;;;;7.82;1.63;;;;;;;;;;4894722;29;20033;-92
2021/10/21 09:50:32;;;;;;;4.40;1.15;;;20.80;47.30;;;;;;4893826;29;20040;-92
2021/10/21 09:53:31;;;;;;;11.68;2.05;;;21.60;44.00;;;;;;4897691;29;20036;-92
2021/10/21 09:56:03;;;;;;;11.75;2.60;;;;;;;;;;4891798;29;20061;-93
2021/10/21 09:58:37;;;;;;;2.80;0.68;;;;;;;;;;4894841;29;20097;-96
2021/10/21 10:01:33;;;;;;;3.25;1.15;;;22.00;42.00;;;;;;4893617;29;20056;-93
2021/10/21 10:03:59;;;;;;;3.55;0.85;;;;;;;;;;4895940;29;20032;-93
2021/10/21 10:06:25;;;;;;;3.47;1.15;;;;;;;;;;4878464;29;20033;-93
2021/10/21 10:08:51;;;;;;;2.38;1.02;;;;;;;;;;4878613;29;20044;-92
2021/10/21 10:11:21;;;;;;;6.82;1.20;;;;;;;;;;4883717;29;20040;-93
2021/10/21 10:13:53;;;;;;;2.10;0.90;;;21.60;44.20;;;;;;4895680;29;20080;-91
2021/10/21 10:16:19;;;;;;;8.35;0.93;;;;;;;;;;4893722;29;20383;-91
2021/10/21 10:18:46;;;;;;;3.92;0.93;;;21.90;43.50;;;;;;4896695;29;20119;-94
2021/10/21 10:21:12;;;;;;;4.10;1.17;;;;;;;;;;4862028;29;20031;-94
2021/10/21 10:23:52;;;;;;;5.15;0.95;;;;;;;;;;4894725;29;20115;-94
2021/10/21 10:26:37;;;;;;;8.57;1.20;;;;;;;;;;4893440;29;20100;-93
2021/10/21 10:29:04;;;;;;;7.40;1.40;;;;;;;;;;4895089;29;20045;-91
2021/10/21 10:31:43;;;;;;;4.18;1.35;;;;;;;;;;4895652;29;20521;-90
2021/10/21 10:34:30;;;;;;;5.60;1.30;;;;;;;;;;4896774;29;20047;-95
2021/10/21 10:36:56;;;;;;;4.03;0.98;;;;;;;;;;4896691;29;20036;-94
2021/10/21 10:39:45;;;;;;;8.60;1.48;;;;;;;;;;4895927;29;20029;-94
2021/10/21 10:42:12;;;;;;;4.35;1.50;;;;;;;;;;4887222;29;20062;-92
2021/10/21 10:44:38;;;;;;;3.33;0.70;;;;;;;;;;4895914;29;20082;-92
2021/10/21 10:47:08;;;;;;;1.73;0.77;;;;;;;;;;4895581;29;20052;-91
2021/10/21 10:49:45;;;;;;;1.45;0.85;;;;;;;;;;4898397;29;20055;-95
2021/10/21 10:52:15;;;;;;;1.13;0.82;;;;;;;;;;4898371;29;20696;-92
2021/10/21 10:54:44;;;;;;;3.97;1.48;;;;;;;;;;4884225;29;20585;-92
2021/10/21 10:57:25;;;;;;;5.10;0.85;;;;;;;;;;4880623;29;20040;-95
2021/10/21 10:59:58;;;;;;;2.58;0.73;;;;;;;;;;4879569;29;20060;-94
2021/10/21 11:02:30;;;;;;;1.40;0.75;;;;;;;;;;4879763;29;20063;-95
2021/10/21 11:04:58;;;;;;;5.57;0.60;;;;;;;;;;4888410;29;20028;-95
2021/10/21 11:07:25;;;;;;;0.52;0.35;;;;;;;;;;4898003;29;20028;-94
2021/10/21 11:09:52;;;;;;;2.42;0.68;;;;;;;;;;4896908;29;20076;-96
2021/10/21 11:12:22;;;;;;;2.03;0.60;;;;;;;;;;4893190;29;20077;-95
2021/10/21 11:14:54;;;;;;;4.75;1.75;;;;;;;;;;4896010;29;20029;-94
2021/10/21 11:17:50;;;;;;;1.65;0.70;;;;;;;;;;4895702;29;20753;-93
2021/10/21 11:20:30;;;;;;;0.70;0.43;;;;;;;;;;4880784;29;20029;-95
2021/10/21 11:22:59;;;;;;;6.53;1.20;;;;;;;;;;4896098;29;20029;-94
2021/10/21 11:25:26;;;;;;;2.53;0.55;;;;;;;;;;4897219;29;20036;-94
2021/10/21 11:27:53;;;;;;;3.90;0.73;;;;;;;;;;4895761;29;20039;-93
2021/10/21 11:30:25;;;;;;;5.05;1.25;;;;;;;;;;4896741;29;20040;-94
2021/10/21 11:32:53;;;;;;;5.15;1.48;;;;;;;;;;4899209;29;20167;-94
2021/10/21 11:35:21;;;;;;;2.42;0.70;;;;;;;;;;4897592;29;20066;-95
2021/10/21 11:37:49;;;;;;;3.50;0.47;;;;;;;;;;4897011;29;20382;-94
2021/10/21 11:40:26;;;;;;;2.63;0.50;;;;;;;;;;4895405;29;20033;-95
2021/10/21 11:42:57;;;;;;;;;;;21.40;43.90;;;;;;4894680;29;20040;-95
2021/10/21 11:45:27;;;;;;;1.25;0.73;;;;;;;;;;4877387;29;19974;-95
2021/10/21 11:47:57;;;;;;;3.80;0.95;;;;;;;;;;4899150;29;20576;-93
2021/10/21 11:50:33;;;;;;;2.67;0.85;;;;;;;;;;4891989;29;20043;-96
2021/10/21 11:52:59;;;;;;;12.15;0.82;;;;;;;;;;4898750;29;20047;-92
2021/10/21 11:55:29;;;;;;;7.30;0.53;;;;;;;;;;4899825;29;20486;-94
2021/10/21 11:57:56;;;;;;;2.58;0.75;;;;;;;;;;4885741;29;20195;-94
2021/10/21 12:00:23;;;;;;;5.28;1.15;;;;;;;;;;4899881;29;20429;-94
2021/10/21 12:02:56;;;;;;;;;;;21.70;44.30;;;;;;4899950;29;20104;-94
2021/10/21 12:05:42;;;;;;;0.43;0.43;;;;;;;;;;4882857;29;19919;-92
2021/10/21 12:08:10;;;;;;;1.57;0.70;;;;;;;;;;4899631;29;20324;-93
2021/10/21 12:10:39;;;;;;;6.70;0.68;;;;;;;;;;4899133;29;20749;-95
2021/10/21 12:13:06;;;;;;;1.35;0.82;;;;;;;;;;4881519;29;20048;-93
2021/10/21 12:15:33;;;;;;;0.40;0.40;;;;;;;;;;4895381;29;20028;-92
2021/10/21 12:18:03;;;;;;;2.97;0.65;;;;;;;;;;4895240;29;20116;-94
2021/10/21 12:20:35;;;;;;;6.43;1.27;;;;;;;;;;4911786;29;20188;-93
2021/10/21 12:23:16;;;;;;;0.77;0.47;;;;;;;;;;4904761;29;20048;-95
2021/10/21 12:25:42;;;;;;;1.42;0.75;;;;;;;;;;4902483;29;20045;-94
2021/10/21 12:33:56;;;;;;;3.85;0.50;;;;;;;;;;5034831;23;20120;-96
2021/10/21 12:36:29;;;;;;;3.70;0.70;;;;;;;;;;4932773;29;20509;-95
2021/10/21 12:39:17;;;;;;;2.10;0.65;;;21.60;44.70;;;;;;4916664;29;20028;-89
2021/10/21 12:42:07;;;;;;;3.47;0.65;;;;;;;;;;4916529;29;20040;-93
2021/10/21 12:44:53;;;;;;;2.95;1.15;;;;;;;;;;4918588;29;20050;-95
2021/10/21 12:47:37;;;;;;;3.45;0.75;;;;;;;;;;4839912;29;20042;-91
2021/10/21 12:50:08;;;;;;;5.30;0.80;;;;;;;;;;4841417;29;20042;-92
2021/10/21 12:52:44;;;;;;;2.20;0.60;;;;;;;;;;4855922;29;20038;-92
2021/10/21 12:55:16;;;;;;;3.20;0.93;;;;;;;;;;4842067;29;20045;-95
2021/10/21 12:57:52;;;;;;;3.35;0.95;;;;;;;;;;4843519;29;20038;-95
2021/10/21 13:00:25;;;;;;;2.83;0.40;;;;;;;;;;4844315;29;20033;-94
2021/10/21 13:03:01;;;;;;;0.38;0.38;;;;;;;;;;4827862;29;20030;-95
2021/10/21 13:05:27;;;;;;;1.55;0.55;;;;;;;;;;4825615;29;20050;-96
2021/10/21 13:08:00;;;;;;;0.80;0.30;;;;;;;;;;4849472;29;20049;-95
2021/10/21 13:10:26;;;;;;;1.88;0.63;;;;;;;;;;4849651;29;20038;-94
2021/10/21 13:12:53;;;;;;;1.13;0.50;;;;;;;;;;4863008;29;20080;-95
2021/10/21 13:15:19;;;;;;;;;;;20.20;41.20;;;;;;4844423;29;20580;-96
2021/10/21 13:17:45;;;;;;;1.13;0.50;;;;;;;;;;4839570;29;19908;-95
2021/10/21 13:20:11;;;;;;;2.80;0.50;;;;;;;;;;4844199;29;20128;-95
2021/10/21 13:22:40;;;;;;;4.22;0.70;;;;;;;;;;4844945;29;20085;-95
2021/10/21 13:25:08;;;;;;;0.73;0.30;;;;;;;;;;4893808;29;20063;-95
2021/10/21 13:27:35;;;;;;;0.55;0.30;;;;;;;;;;4901151;29;20816;-93
2021/10/21 13:30:01;;;;;;;0.38;0.20;;;;;;;;;;4916415;29;20072;-92
2021/10/21 13:32:27;;;;;;;1.70;0.43;;;;;;;;;;4914818;29;20056;-92
2021/10/21 13:34:53;;;;;;;0.30;0.30;;;;;;;;;;4931618;29;20039;-93
2021/10/21 13:37:22;;;;;;;1.02;0.55;;;;;;;;;;4919061;29;20028;-96
2021/10/21 13:39:49;;;;;;;2.35;0.47;;;;;;;;;;4902897;29;20036;-95
2021/10/21 13:42:15;;;;;;;4.82;0.88;;;;;;;;;;4917344;29;20034;-92
2021/10/21 13:44:42;;;;;;;3.22;0.40;;;;;;;;;;4915637;29;20042;-95
2021/10/21 13:47:08;;;;;;;1.45;0.43;;;;;;;;;;4911195;29;20028;-90
2021/10/21 13:49:34;;;;;;;0.70;0.40;;;;;;;;;;4916113;29;20072;-94
2021/10/21 13:52:00;;;;;;;3.40;0.77;;;;;;;;;;4899754;29;20115;-93
2021/10/21 13:54:27;;;;;;;1.30;0.70;;;;;;;;;;4916334;29;20054;-91
2021/10/21 13:56:53;;;;;;;0.75;0.50;;;;;;;;;;4907659;29;20021;-95
2021/10/21 13:59:22;;;;;;;0.98;0.43;;;;;;;;;;4886699;29;20029;-95
2021/10/21 14:01:50;;;;;;;0.20;0.20;;;;;;;;;;4909809;29;20397;-95
2021/10/21 14:04:17;;;;;;;2.08;0.40;;;;;;;;;;4916807;29;20033;-94
2021/10/21 14:06:44;;;;;;;0.90;0.40;;;;;;;;;;4901313;29;20131;-95
2021/10/21 14:09:10;;;;;;;7.63;0.68;;;;;;;;;;4901373;29;20130;-95
2021/10/21 14:11:36;;;;;;;0.93;0.40;;;;;;;;;;4915741;29;20032;-95
2021/10/21 14:14:05;;;;;;;3.63;0.95;;;;;;;;;;4916757;29;20031;-94
2021/10/21 14:16:34;;;;;;;0.82;0.68;;;;;;;;;;4915474;29;20031;-95
2021/10/21 14:21:33;;;;;;;2.63;0.75;;;;;;;;;;4916982;29;20059;-95
2021/10/21 14:24:03;;;;;;;0.65;0.38;;;;;;;;;;4924864;29;20036;-95
2021/10/21 14:26:51;;;;;;;7.57;1.05;;;;;;;;;;4915461;29;20039;-84
2021/10/21 14:29:18;;;;;;;1.10;0.63;;;;;;;;;;4906261;29;20036;-84
2021/10/21 14:31:45;;;;;;;0.43;0.40;;;;;;;;;;4901470;29;20051;-84
2021/10/21 14:34:11;;;;;;;;;;;19.70;44.00;;;;;;4912071;29;20029;-87
2021/10/21 14:36:38;;;;;;;0.82;0.45;;;;;;;;;;4912517;29;19907;-93
2021/10/21 14:39:15;;;;;;;;;;;;;;;;;;;;;
2021/10/21 14:41:41;;;;;;;4.53;0.70;;;;;;;;;;4913988;29;20059;-94
2021/10/21 14:44:07;;;;;;;0.40;0.28;;;;;;;;;;4906639;29;20024;-93
2021/10/21 14:47:00;;;;;;;7.07;1.23;;;;;;;;;;4917747;29;20056;-95
2021/10/21 14:49:32;;;;;;;0.65;0.60;;;;;;;;;;4897070;29;20041;-94
2021/10/21 14:51:58;;;;;;;2.63;0.40;;;;;;;;;;4907363;29;20038;-95
2021/10/21 14:54:24;;;;;;;5.28;0.77;;;;;;;;;;4917463;29;20092;-94
2021/10/21 14:56:54;;;;;;;3.85;0.63;;;;;;;;;;4898974;29;20116;-93
2021/10/21 14:59:21;;;;;;;1.10;0.40;;;;;;;;;;4914823;29;20025;-91
2021/10/21 15:01:47;;;;;;;0.82;0.50;;;;;;;;;;4915944;29;20039;-95
2021/10/21 15:04:16;;;;;;;10.15;1.08;;;;;;;;;;4916770;29;20394;-94
2021/10/21 15:25:42;;;;;;;3.63;0.60;;;;;;;;;;5027284;23;20048;-95
2021/10/21 15:29:02;;;;;;;;;;;;;;;;;;;;;
2021/10/21 15:31:41;;;;;;;1.77;0.63;;;;;;;;;;4832540;29;20034;-96
2021/10/21 15:34:20;;;;;;;;;;;;;;;;;;4842598;29;20038;-93
2021/10/21 15:36:47;;;;;;;1.48;0.52;;;;;;;;;;4841521;29;20350;-93
2021/10/21 15:39:20;;;;;;;1.42;0.70;;;;;;;;;;4841714;29;20034;-93